• °C
  • Pobieranie danych...
wx


SEKCJA WYDRUKÓW, pokaż »

METAR EPBY 241000Z 23007KT 6000 OVC003 02/01 Q1033=

METAR EPGD 241000Z 25010KT 9999 OVC003 02/02 Q1030 =

METAR EPKK 241000Z VRB01KT 8000 NSC M02/M09 Q1035 =

METAR EPKT 241000Z 21004KT CAVOK M02/M07 Q1034 =

METAR EPLB 241000Z 22006KT CAVOK M06/M08 Q1036 =

METAR EPLL 241000Z 20004KT 140V230 8000 BKN028 M00/M03 Q1034 =

METAR EPML 241000Z AUTO 17006KT 140V200 9000 NCD M04/M09 Q1036=

METAR EPMO 241000Z 20007KT 9999 SCT019 M01/M05 Q1035 =

METAR EPPO 241000Z 23005KT 9999 SCT004 OVC007 03/02 Q1034 =

METAR EPRA 241000Z 20006KT CAVOK M03/M05 Q1035=

METAR EPRZ 241000Z VRB02KT 9000 BKN008 M08/M09 Q1037 =

METAR EPSC 241000Z 28008KT 250V310 9999 SCT002 OVC005 05/05 Q1033 =

METAR EPSY 241000Z 21007KT 9999 BKN013 M01/M04 Q1033=

METAR EPWA 241000Z 17005KT 150V210 CAVOK M02/M06 Q1035 NOSIG=

METAR EPWR 241000Z 17003KT 140V200 3200 -DZ BR BKN003 OVC005 01/00
Q1035 =

METAR EPZG 241000Z 18005KT 2500 BR BKN003 OVC006 03/03 Q1035 =
 METAR EPML
Lokalizacja:EPML Mielec
Czas:10:00 UTC
AUTO:Depesza całkowicie automatyczna, bez udziału obserwatora
Średni kierunek wiatru:170 °
Średnia prędkość wiatru:6 węzłów
Kierunek wiatru zmienia się od:140 °
Kierunek wiatru zmienia się do:200 °
Widzialność:9 kilometrów
Zachmurzenie :brak możliwości ustalenia
Temperatura powietrza:-4 °C
Temperatura punktu rosy:-9 °C
Ciśnienie QNH:1036 hPa



Serwisy IMGW-PIB